createdAt,value
2023-05-17T00:00:42.797Z,2.03
2023-05-17T00:03:10.807Z,1.83
2023-05-17T00:05:38.207Z,2.33
2023-05-17T00:08:05.876Z,1.80
2023-05-17T00:10:33.223Z,2.10
2023-05-17T00:13:00.570Z,1.93
2023-05-17T00:15:28.297Z,1.73
2023-05-17T00:17:56.817Z,1.80
2023-05-17T00:20:25.082Z,2.00
2023-05-17T00:22:52.503Z,1.63
2023-05-17T00:25:19.857Z,2.67
2023-05-17T00:27:47.244Z,1.30
2023-05-17T00:30:14.814Z,2.67
2023-05-17T00:32:42.188Z,2.10
2023-05-17T00:35:09.859Z,1.80
2023-05-17T00:37:38.574Z,1.90
2023-05-17T00:40:07.259Z,2.60
2023-05-17T00:42:34.585Z,1.53
2023-05-17T00:45:01.928Z,2.07
2023-05-17T00:47:29.469Z,2.13
2023-05-17T00:49:56.975Z,1.37
2023-05-17T00:52:24.443Z,1.80
2023-05-17T00:54:52.772Z,1.83
2023-05-17T00:57:20.279Z,1.90
2023-05-17T00:59:48.687Z,1.30
2023-05-17T01:02:16.036Z,1.73
2023-05-17T01:04:43.445Z,1.47
2023-05-17T01:07:10.959Z,1.47
2023-05-17T01:09:38.602Z,1.77
2023-05-17T01:12:15.213Z,2.17
2023-05-17T01:14:56.675Z,1.80
2023-05-17T01:17:39.494Z,1.77
2023-05-17T01:20:17.826Z,1.97
2023-05-17T01:22:51.592Z,2.70
2023-05-17T01:25:35.974Z,2.60
2023-05-17T01:28:06.228Z,1.60
2023-05-17T01:30:34.812Z,1.90
2023-05-17T01:33:03.879Z,2.40
2023-05-17T01:35:31.466Z,1.60
2023-05-17T01:37:58.888Z,1.47
2023-05-17T01:40:26.751Z,1.70
2023-05-17T01:42:57.668Z,1.90
2023-05-17T01:45:31.550Z,1.80
2023-05-17T01:48:11.908Z,1.80
2023-05-17T01:50:39.784Z,2.10
2023-05-17T01:53:11.046Z,2.00
2023-05-17T01:55:44.490Z,1.70
2023-05-17T01:58:13.534Z,1.80
2023-05-17T02:00:43.433Z,1.77
2023-05-17T02:03:16.639Z,2.07
2023-05-17T02:05:44.577Z,2.50
2023-05-17T02:08:12.203Z,2.20
2023-05-17T02:10:39.787Z,2.20
2023-05-17T02:13:07.115Z,6.20
2023-05-17T02:15:34.520Z,4.00
2023-05-17T02:18:02.743Z,4.00
2023-05-17T02:20:30.665Z,3.33
2023-05-17T02:23:00.796Z,2.20
2023-05-17T02:25:28.451Z,2.27
2023-05-17T02:27:55.945Z,2.10
2023-05-17T02:30:24.114Z,2.23
2023-05-17T02:32:52.512Z,1.97
2023-05-17T02:35:20.952Z,1.97
2023-05-17T02:37:48.325Z,2.13
2023-05-17T02:40:15.793Z,2.40
2023-05-17T02:42:43.120Z,1.70
2023-05-17T02:45:11.234Z,2.30
2023-05-17T02:47:38.746Z,1.90
2023-05-17T02:50:07.022Z,1.90
2023-05-17T02:52:35.136Z,1.70
2023-05-17T02:55:02.840Z,2.13
2023-05-17T02:57:30.162Z,2.30
2023-05-17T02:59:57.485Z,2.33
2023-05-17T03:02:24.804Z,2.33
2023-05-17T03:04:52.447Z,3.03
2023-05-17T03:07:19.761Z,3.43
2023-05-17T03:09:47.817Z,2.73
2023-05-17T03:12:15.195Z,2.90
2023-05-17T03:14:42.571Z,2.80
2023-05-17T03:17:09.886Z,4.37
2023-05-17T03:19:37.281Z,3.47
2023-05-17T03:22:04.740Z,2.93
2023-05-17T03:24:32.242Z,3.03
2023-05-17T03:27:00.272Z,3.30
2023-05-17T03:29:27.621Z,3.07
2023-05-17T03:31:55.126Z,3.10
2023-05-17T03:34:22.532Z,2.93
2023-05-17T03:36:49.917Z,3.10
2023-05-17T03:39:17.270Z,2.97
2023-05-17T03:41:44.650Z,3.00
2023-05-17T03:44:12.652Z,2.90
2023-05-17T03:46:39.963Z,2.40
2023-05-17T03:49:07.304Z,2.70
2023-05-17T03:51:35.009Z,3.03
2023-05-17T03:54:02.378Z,3.17
2023-05-17T03:56:30.639Z,2.50
2023-05-17T03:58:57.952Z,2.77
2023-05-17T04:01:25.965Z,3.10
2023-05-17T04:03:53.373Z,3.00
2023-05-17T04:06:20.887Z,2.50
2023-05-17T04:08:48.271Z,3.93
2023-05-17T04:11:15.687Z,2.97
2023-05-17T04:13:43.488Z,3.20
2023-05-17T04:16:13.994Z,3.87
2023-05-17T04:18:42.098Z,2.20
2023-05-17T04:21:09.606Z,3.10
2023-05-17T04:23:37.427Z,3.73
2023-05-17T04:26:05.490Z,3.20
2023-05-17T04:28:34.270Z,3.00
2023-05-17T04:31:01.856Z,4.07
2023-05-17T04:33:29.242Z,4.20
2023-05-17T04:35:57.339Z,4.40
2023-05-17T04:38:24.773Z,3.50
2023-05-17T04:40:52.088Z,3.90
2023-05-17T04:43:19.437Z,3.43
2023-05-17T04:45:46.861Z,4.07
2023-05-17T04:48:16.205Z,3.03
2023-05-17T04:50:46.395Z,3.30
2023-05-17T04:53:14.945Z,3.60
2023-05-17T04:55:42.328Z,3.03
2023-05-17T04:58:09.692Z,6.03
2023-05-17T05:00:37.058Z,4.70
2023-05-17T05:03:04.661Z,3.53
2023-05-17T05:05:32.122Z,3.13
2023-05-17T05:07:59.429Z,2.93
2023-05-17T05:10:28.031Z,4.77
2023-05-17T05:12:55.443Z,3.47
2023-05-17T05:15:22.824Z,3.57
2023-05-17T05:17:50.417Z,4.30
2023-05-17T05:20:17.898Z,3.60
2023-05-17T05:22:45.225Z,3.47
2023-05-17T05:25:12.677Z,5.40
2023-05-17T05:27:40.694Z,4.30
2023-05-17T05:30:09.255Z,4.90
2023-05-17T05:32:37.576Z,4.03
2023-05-17T05:35:05.748Z,4.87
2023-05-17T05:37:33.189Z,5.00
2023-05-17T05:40:00.624Z,4.40
2023-05-17T05:42:28.921Z,5.90
2023-05-17T05:44:56.861Z,5.07
2023-05-17T05:47:24.222Z,4.40
2023-05-17T05:49:51.574Z,4.00
2023-05-17T05:52:18.908Z,4.70
2023-05-17T05:54:46.690Z,4.63
2023-05-17T05:57:13.980Z,4.60
2023-05-17T05:59:41.408Z,6.13
2023-05-17T06:02:09.732Z,5.97
2023-05-17T06:04:45.098Z,4.07
2023-05-17T06:07:13.603Z,2.27
2023-05-17T06:09:41.497Z,2.93
2023-05-17T06:12:08.945Z,4.00
2023-05-17T06:14:36.803Z,4.07
2023-05-17T06:17:04.671Z,5.27
2023-05-17T06:19:33.139Z,4.70
2023-05-17T06:22:00.733Z,4.17
2023-05-17T06:24:28.055Z,5.57
2023-05-17T06:26:55.364Z,4.40
2023-05-17T06:29:23.444Z,4.37
2023-05-17T06:31:50.891Z,4.70
2023-05-17T06:34:18.218Z,3.10
2023-05-17T06:36:46.287Z,4.27
2023-05-17T06:39:13.770Z,5.27
2023-05-17T06:41:41.232Z,3.80
2023-05-17T06:44:08.742Z,5.80
2023-05-17T06:46:36.118Z,4.40
2023-05-17T06:49:03.697Z,5.10
2023-05-17T06:51:31.264Z,3.93
2023-05-17T06:53:59.309Z,4.30
2023-05-17T06:56:26.718Z,3.53
2023-05-17T06:58:54.151Z,4.70
2023-05-17T07:01:21.677Z,4.50
2023-05-17T07:03:49.218Z,4.90
2023-05-17T07:06:16.801Z,2.90
2023-05-17T07:08:44.332Z,5.17
2023-05-17T07:11:12.329Z,4.00
2023-05-17T07:13:39.738Z,4.90
2023-05-17T07:16:08.279Z,4.70
2023-05-17T07:18:35.928Z,4.30
2023-05-17T07:21:03.845Z,4.60
2023-05-17T07:23:31.234Z,4.87
2023-05-17T07:25:58.631Z,4.80
2023-05-17T07:28:26.726Z,3.20
2023-05-17T07:30:54.055Z,3.50
2023-05-17T07:33:21.413Z,4.37
2023-05-17T07:35:48.782Z,3.13
2023-05-17T07:38:16.342Z,4.23
2023-05-17T07:40:45.699Z,3.30
2023-05-17T07:43:13.070Z,4.00
2023-05-17T07:45:42.774Z,4.03
2023-05-17T07:48:10.228Z,3.77
2023-05-17T07:50:37.600Z,4.20
2023-05-17T07:53:04.936Z,4.77
2023-05-17T07:55:32.293Z,4.27
2023-05-17T07:57:59.616Z,3.43
2023-05-17T08:00:27.251Z,3.03
2023-05-17T08:02:55.978Z,3.20
2023-05-17T08:05:23.588Z,3.73
2023-05-17T08:07:51.578Z,3.20
2023-05-17T08:10:19.162Z,2.37
2023-05-17T08:12:46.730Z,3.73
2023-05-17T08:15:14.086Z,3.50
2023-05-17T08:17:41.539Z,3.70
2023-05-17T08:20:10.944Z,4.70
2023-05-17T08:22:38.355Z,4.37
2023-05-17T08:25:06.653Z,4.43
2023-05-17T08:27:34.044Z,5.90
2023-05-17T08:30:05.477Z,4.70
2023-05-17T08:32:34.626Z,5.43
2023-05-17T08:35:02.065Z,5.50
2023-05-17T08:37:30.277Z,4.53
2023-05-17T08:39:57.628Z,6.07
2023-05-17T08:42:25.330Z,5.53
2023-05-17T08:44:53.321Z,3.90
2023-05-17T08:47:25.675Z,4.93
2023-05-17T08:49:55.125Z,5.40
2023-05-17T08:52:22.829Z,5.67
2023-05-17T08:54:50.816Z,4.60
2023-05-17T08:57:18.419Z,4.53
2023-05-17T08:59:47.333Z,3.23
2023-05-17T09:02:15.673Z,4.90
2023-05-17T09:04:43.626Z,3.87
2023-05-17T09:07:11.329Z,3.80
2023-05-17T09:09:38.856Z,3.73
2023-05-17T09:12:08.023Z,4.73
2023-05-17T09:14:35.642Z,4.63
2023-05-17T09:17:03.077Z,5.37
2023-05-17T09:19:31.629Z,3.97
2023-05-17T09:22:01.859Z,4.30
2023-05-17T09:24:30.317Z,4.00
2023-05-17T09:27:02.744Z,5.10
2023-05-17T09:29:32.572Z,4.77
2023-05-17T09:32:13.498Z,1.83
2023-05-17T09:34:41.685Z,2.93
2023-05-17T09:37:14.292Z,4.73
2023-05-17T09:39:41.923Z,3.00
2023-05-17T09:42:09.427Z,3.93
2023-05-17T09:44:47.649Z,1.80
2023-05-17T09:47:26.464Z,3.80
2023-05-17T09:49:55.707Z,2.53
2023-05-17T09:52:24.431Z,2.73
2023-05-17T09:54:55.507Z,3.40
2023-05-17T09:57:24.652Z,3.43
2023-05-17T09:59:56.222Z,3.17
2023-05-17T10:02:27.084Z,3.37
2023-05-17T10:04:57.495Z,3.13
2023-05-17T10:07:27.183Z,2.63
2023-05-17T10:09:55.549Z,2.20
2023-05-17T10:12:25.752Z,2.80
2023-05-17T10:14:55.556Z,2.63
2023-05-17T10:17:23.917Z,2.70
2023-05-17T10:19:52.670Z,3.93
2023-05-17T10:22:23.577Z,3.80
2023-05-17T10:24:52.163Z,3.77
2023-05-17T10:27:20.261Z,2.70
2023-05-17T10:29:50.448Z,3.73
2023-05-17T10:32:22.364Z,3.57
2023-05-17T10:34:58.018Z,3.27
2023-05-17T10:37:34.495Z,2.70
2023-05-17T10:40:02.328Z,2.60
2023-05-17T10:42:32.005Z,2.70
2023-05-17T10:45:01.576Z,1.83
2023-05-17T10:47:33.728Z,3.23
2023-05-17T10:50:01.287Z,2.53
2023-05-17T10:52:28.716Z,2.57
2023-05-17T10:54:59.287Z,3.10
2023-05-17T10:57:49.185Z,1.80
2023-05-17T11:00:20.918Z,2.80
2023-05-17T11:02:49.801Z,3.30
2023-05-17T11:05:24.384Z,2.77
2023-05-17T11:07:52.058Z,2.00
2023-05-17T11:10:19.447Z,3.03
2023-05-17T11:12:53.259Z,3.83
2023-05-17T11:15:25.581Z,2.43
2023-05-17T11:17:53.890Z,3.93
2023-05-17T11:20:37.701Z,2.47
2023-05-17T11:23:07.031Z,2.40
2023-05-17T11:25:36.415Z,2.60
2023-05-17T11:28:17.967Z,3.10
2023-05-17T11:30:50.724Z,2.33
2023-05-17T11:33:32.491Z,2.90
2023-05-17T11:36:06.167Z,1.97
2023-05-17T11:38:33.952Z,2.87
2023-05-17T11:41:26.389Z,2.03
2023-05-17T11:43:54.833Z,2.00
2023-05-17T11:46:24.010Z,2.63
2023-05-17T11:48:53.193Z,3.40
2023-05-17T11:51:22.867Z,2.67
2023-05-17T11:53:54.549Z,2.90
2023-05-17T11:56:29.160Z,2.17
2023-05-17T11:59:00.308Z,2.70
2023-05-17T12:01:27.848Z,1.90
2023-05-17T12:03:59.017Z,2.67
2023-05-17T12:06:28.012Z,2.03
2023-05-17T12:08:55.482Z,1.90
2023-05-17T12:11:23.170Z,1.80
2023-05-17T12:13:51.462Z,1.93
2023-05-17T12:16:22.239Z,2.40
2023-05-17T12:18:51.487Z,2.60
2023-05-17T12:21:20.692Z,2.20
2023-05-17T12:23:51.196Z,2.37
2023-05-17T12:26:20.867Z,3.10
2023-05-17T12:28:54.946Z,2.70
2023-05-17T12:31:27.690Z,1.90
2023-05-17T12:33:55.746Z,1.77
2023-05-17T12:36:24.195Z,2.20
2023-05-17T12:38:53.047Z,2.53
2023-05-17T12:41:22.386Z,2.80
2023-05-17T12:43:53.123Z,2.60
2023-05-17T12:46:24.612Z,4.40
2023-05-17T12:48:53.583Z,2.47
2023-05-17T12:51:22.606Z,3.60
2023-05-17T12:53:51.196Z,3.10
2023-05-17T12:56:21.732Z,2.30
2023-05-17T12:59:04.767Z,1.90
2023-05-17T13:01:34.393Z,2.33
2023-05-17T13:04:01.823Z,3.30
2023-05-17T13:06:29.973Z,2.47
2023-05-17T13:09:01.053Z,2.47
2023-05-17T13:11:28.394Z,1.70
2023-05-17T13:13:55.835Z,2.67
2023-05-17T13:16:29.429Z,2.83
2023-05-17T13:18:56.860Z,3.10
2023-05-17T13:21:24.360Z,3.10
2023-05-17T13:23:52.384Z,2.43
2023-05-17T13:26:20.835Z,2.80
2023-05-17T13:28:49.026Z,2.70
2023-05-17T13:31:16.333Z,2.07
2023-05-17T13:33:44.452Z,2.60
2023-05-17T13:36:11.853Z,2.70
2023-05-17T13:38:39.287Z,2.33
2023-05-17T13:41:08.588Z,2.53
2023-05-17T13:43:36.511Z,2.93
2023-05-17T13:46:03.902Z,3.30
2023-05-17T13:48:31.273Z,3.20
2023-05-17T13:50:59.092Z,2.80
2023-05-17T13:53:26.514Z,2.47
2023-05-17T13:55:53.860Z,2.80
2023-05-17T13:58:21.923Z,2.57
2023-05-17T14:00:49.279Z,2.27
2023-05-17T14:03:16.716Z,1.40
2023-05-17T14:05:45.517Z,1.83
2023-05-17T14:08:13.344Z,2.20
2023-05-17T14:10:41.573Z,1.50
2023-05-17T14:13:08.952Z,1.90
2023-05-17T14:15:38.145Z,2.10
2023-05-17T14:18:06.267Z,1.50
2023-05-17T14:20:33.962Z,2.50
2023-05-17T14:25:34.917Z,2.10
2023-05-17T14:28:02.382Z,2.67
2023-05-17T14:30:29.982Z,1.90
2023-05-17T14:32:58.517Z,2.50
2023-05-17T14:35:25.924Z,2.50
2023-05-17T14:37:53.294Z,1.90
2023-05-17T14:40:21.110Z,2.53
2023-05-17T14:42:48.690Z,1.93
2023-05-17T14:45:16.180Z,1.90
2023-05-17T14:47:43.498Z,2.23
2023-05-17T14:50:12.018Z,2.20
2023-05-17T14:52:39.398Z,2.30
2023-05-17T14:55:08.254Z,2.30
2023-05-17T14:57:36.329Z,2.50
2023-05-17T15:00:09.740Z,2.60
2023-05-17T15:02:37.277Z,2.43
2023-05-17T15:05:05.510Z,2.43
2023-05-17T15:07:33.792Z,2.27
2023-05-17T15:10:01.244Z,1.90
2023-05-17T15:12:28.653Z,1.70
2023-05-17T15:14:56.664Z,2.57
2023-05-17T15:17:24.081Z,2.60
2023-05-17T15:19:51.642Z,2.40
2023-05-17T15:22:19.040Z,2.60
2023-05-17T15:24:47.198Z,1.43
2023-05-17T15:27:15.841Z,3.80
2023-05-17T15:29:44.051Z,1.53
2023-05-17T15:32:11.436Z,3.67
2023-05-17T15:34:38.924Z,2.13
2023-05-17T15:37:07.197Z,2.50
2023-05-17T15:39:34.570Z,3.30
2023-05-17T15:42:02.750Z,2.03
2023-05-17T15:44:30.227Z,2.50
2023-05-17T15:46:58.221Z,2.53
2023-05-17T15:49:26.887Z,2.70
2023-05-17T15:51:54.500Z,2.93
2023-05-17T15:54:21.877Z,2.17
2023-05-17T15:56:49.327Z,1.77
2023-05-17T15:59:17.597Z,2.63
2023-05-17T16:01:45.795Z,2.47
2023-05-17T16:04:13.456Z,2.70
2023-05-17T16:06:41.152Z,2.30
2023-05-17T16:09:08.609Z,3.17
2023-05-17T16:11:36.372Z,3.27
2023-05-17T16:14:03.718Z,2.63
2023-05-17T16:16:31.865Z,2.90
2023-05-17T16:19:00.457Z,2.53
2023-05-17T16:21:27.848Z,2.40
2023-05-17T16:23:55.311Z,4.47
2023-05-17T16:26:22.690Z,2.33
2023-05-17T16:28:51.453Z,2.50
2023-05-17T16:31:18.910Z,2.00
2023-05-17T16:33:47.567Z,1.87
2023-05-17T16:36:15.016Z,2.13
2023-05-17T16:38:42.412Z,2.80
2023-05-17T16:41:09.924Z,2.13
2023-05-17T16:43:37.365Z,2.97
2023-05-17T16:46:04.805Z,1.40
2023-05-17T16:48:32.224Z,1.40
2023-05-17T16:51:00.357Z,3.83
2023-05-17T16:53:27.906Z,2.70
2023-05-17T16:55:55.366Z,2.30
2023-05-17T16:58:22.767Z,1.83
2023-05-17T17:00:50.335Z,1.73
2023-05-17T17:03:17.818Z,2.67
2023-05-17T17:05:45.450Z,2.23
2023-05-17T17:08:13.502Z,2.20
2023-05-17T17:10:40.916Z,2.30
2023-05-17T17:13:09.073Z,1.67
2023-05-17T17:15:36.578Z,2.10
2023-05-17T17:18:04.164Z,1.90
2023-05-17T17:20:31.844Z,2.03
2023-05-17T17:22:59.302Z,2.57
2023-05-17T17:25:27.403Z,3.50
2023-05-17T17:27:55.154Z,2.33
2023-05-17T17:30:22.680Z,2.27
2023-05-17T17:32:50.174Z,2.00
2023-05-17T17:35:17.781Z,1.90
2023-05-17T17:37:45.172Z,2.20
2023-05-17T17:40:12.821Z,2.00
2023-05-17T17:42:40.999Z,1.90
2023-05-17T17:45:09.391Z,1.80
2023-05-17T17:47:36.849Z,2.57
2023-05-17T17:50:04.851Z,2.87
2023-05-17T17:52:32.233Z,2.13
2023-05-17T17:55:00.954Z,2.23
2023-05-17T17:57:28.713Z,1.77
2023-05-17T17:59:57.662Z,1.97
2023-05-17T18:02:25.101Z,2.63
2023-05-17T18:04:52.514Z,1.73
2023-05-17T18:07:19.960Z,1.90
2023-05-17T18:09:47.329Z,1.60
2023-05-17T18:12:14.739Z,1.67
2023-05-17T18:14:42.112Z,2.00
2023-05-17T18:17:10.223Z,1.90
2023-05-17T18:19:37.682Z,1.63
2023-05-17T18:22:05.759Z,2.17
2023-05-17T18:24:33.177Z,1.73
2023-05-17T18:27:00.819Z,1.43
2023-05-17T18:29:28.273Z,2.70
2023-05-17T18:31:58.555Z,2.63
2023-05-17T18:34:26.646Z,2.90
2023-05-17T18:36:54.023Z,2.70
2023-05-17T18:39:21.383Z,2.23
2023-05-17T18:41:48.731Z,2.43
2023-05-17T18:44:16.954Z,3.20
2023-05-17T18:46:46.127Z,4.00
2023-05-17T18:49:14.209Z,1.83
2023-05-17T18:51:42.418Z,2.50
2023-05-17T18:54:10.002Z,3.90
2023-05-17T18:56:37.420Z,2.90
2023-05-17T18:59:04.889Z,3.10
2023-05-17T19:01:32.437Z,2.87
2023-05-17T19:03:59.890Z,2.90
2023-05-17T19:06:27.325Z,2.90
2023-05-17T19:08:57.414Z,2.87
2023-05-17T19:11:25.779Z,2.43
2023-05-17T19:13:53.156Z,3.07
2023-05-17T19:16:20.738Z,2.70
2023-05-17T19:18:48.178Z,3.47
2023-05-17T19:21:15.557Z,2.33
2023-05-17T19:23:42.886Z,3.97
2023-05-17T19:26:10.974Z,1.97
2023-05-17T19:28:39.273Z,3.37
2023-05-17T19:31:07.577Z,2.60
2023-05-17T19:33:36.971Z,2.57
2023-05-17T19:36:04.585Z,3.67
2023-05-17T19:38:32.601Z,2.40
2023-05-17T19:41:00.154Z,2.10
2023-05-17T19:43:28.586Z,2.37
2023-05-17T19:45:55.993Z,2.90
2023-05-17T19:48:24.091Z,3.10
2023-05-17T19:50:52.825Z,3.30
2023-05-17T19:53:21.429Z,2.13
2023-05-17T19:55:48.811Z,4.60
2023-05-17T19:58:16.160Z,7.50
2023-05-17T20:00:44.235Z,8.67
2023-05-17T20:03:11.856Z,3.43
2023-05-17T20:05:39.355Z,2.70
2023-05-17T20:08:07.503Z,4.23
2023-05-17T20:10:35.208Z,2.53
2023-05-17T20:13:02.565Z,2.60
2023-05-17T20:15:29.895Z,3.60
2023-05-17T20:17:57.971Z,3.20
2023-05-17T20:20:25.586Z,2.47
2023-05-17T20:22:52.944Z,2.97
2023-05-17T20:25:21.130Z,2.67
2023-05-17T20:27:48.443Z,2.80
2023-05-17T20:30:15.862Z,3.57
2023-05-17T20:32:43.266Z,5.37
2023-05-17T20:35:11.698Z,2.73
2023-05-17T20:37:39.063Z,6.60
2023-05-17T20:40:09.078Z,4.47
2023-05-17T20:42:37.431Z,3.50
2023-05-17T20:45:05.844Z,3.37
2023-05-17T20:47:33.512Z,5.03
2023-05-17T20:50:00.969Z,6.20
2023-05-17T20:52:38.858Z,6.50
2023-05-17T20:55:08.513Z,6.40
2023-05-17T20:57:35.899Z,5.93
2023-05-17T21:00:08.887Z,7.37
2023-05-17T21:02:37.616Z,6.33
2023-05-17T21:05:05.327Z,6.23
2023-05-17T21:07:34.200Z,6.40
2023-05-17T21:10:01.578Z,5.13
2023-05-17T21:12:28.990Z,3.80
2023-05-17T21:15:14.508Z,4.47
2023-05-17T21:17:43.034Z,3.60
2023-05-17T21:20:11.626Z,3.10
2023-05-17T21:22:39.731Z,3.33
2023-05-17T21:25:08.257Z,3.30
2023-05-17T21:27:35.658Z,3.47
2023-05-17T21:30:03.109Z,3.37
2023-05-17T21:32:30.561Z,3.40
2023-05-17T21:34:58.872Z,3.80
2023-05-17T21:37:26.234Z,2.50
2023-05-17T21:39:54.333Z,3.43
2023-05-17T21:42:21.757Z,3.03
2023-05-17T21:44:49.082Z,3.43
2023-05-17T21:47:16.450Z,3.30
2023-05-17T21:49:43.854Z,2.37
2023-05-17T21:52:11.241Z,2.60
2023-05-17T21:54:38.653Z,2.90
2023-05-17T21:57:06.896Z,2.83
2023-05-17T21:59:34.530Z,2.70
2023-05-17T22:02:01.923Z,3.00
2023-05-17T22:04:29.396Z,2.80
2023-05-17T22:06:56.972Z,2.73
2023-05-17T22:09:24.381Z,2.20
2023-05-17T22:11:51.770Z,2.13
2023-05-17T22:14:20.051Z,3.20
2023-05-17T22:16:47.382Z,2.07
2023-05-17T22:19:14.906Z,2.53
2023-05-17T22:21:42.288Z,1.90
2023-05-17T22:24:09.637Z,1.93
2023-05-17T22:26:37.255Z,2.43
2023-05-17T22:29:04.655Z,1.97
2023-05-17T22:31:36.921Z,2.23
2023-05-17T22:34:04.325Z,2.00
2023-05-17T22:36:33.631Z,2.00
2023-05-17T22:39:01.075Z,2.30
2023-05-17T22:41:28.460Z,2.63
2023-05-17T22:43:55.856Z,2.10
2023-05-17T22:46:23.700Z,1.60
2023-05-17T22:48:52.070Z,2.50
2023-05-17T22:51:19.454Z,2.10
2023-05-17T22:53:46.826Z,2.23
2023-05-17T22:56:14.219Z,2.00
2023-05-17T22:58:41.661Z,2.30
2023-05-17T23:01:09.063Z,1.90
2023-05-17T23:03:36.481Z,2.07
2023-05-17T23:06:04.801Z,2.30
2023-05-17T23:08:32.527Z,2.80
2023-05-17T23:11:01.065Z,2.63
2023-05-17T23:13:28.577Z,3.33
2023-05-17T23:15:56.188Z,2.13
2023-05-17T23:18:23.739Z,1.73
2023-05-17T23:20:51.092Z,3.07
2023-05-17T23:23:22.272Z,3.07
2023-05-17T23:25:50.041Z,3.00
2023-05-17T23:28:17.922Z,2.53
2023-05-17T23:30:47.868Z,2.93
2023-05-17T23:33:15.604Z,2.77
2023-05-17T23:35:42.988Z,3.30
2023-05-17T23:38:10.609Z,2.93
2023-05-17T23:40:40.149Z,2.30
2023-05-17T23:43:09.490Z,2.97
2023-05-17T23:45:37.001Z,2.30
2023-05-17T23:48:04.455Z,3.37
2023-05-17T23:50:31.874Z,2.27
2023-05-17T23:53:03.010Z,3.10
2023-05-17T23:55:30.803Z,2.27
2023-05-17T23:57:58.925Z,2.40
